Time;durP1;ratioP1;P1;durP2;ratioP2;P2;SDS_P1;SDS_P2;PMS_P1;PMS_P2;Temp;Humidity;BMP_temperature;BMP_pressure;BME280_temperature;BME280_humidity;BME280_pressure;Samples;Min_cycle;Max_cycle;Signal;HPM_P1;HPM_P2
2024/01/28 00:00:28;;;;;;;10.87;5.73;;;;;;;;;;5262512;28;20095;-74
2024/01/28 00:03:00;;;;;;;9.43;4.90;;;;;;;;;;5262825;28;20089;-74
2024/01/28 00:05:32;;;;;;;13.27;4.80;;;;;;;;;;5261880;28;20060;-74
2024/01/28 00:08:03;;;;;;;13.93;4.90;;;;;;;;;;5262483;28;20460;-75
2024/01/28 00:10:35;;;;;;;10.93;5.03;;;;;;;;;;5262359;28;20040;-75
2024/01/28 00:13:06;;;;;;;12.40;5.20;;;;;;;;;;5261712;28;20009;-74
2024/01/28 00:15:38;;;;;;;16.47;4.27;;;;;;;;;;5262390;28;20389;-74
2024/01/28 00:18:09;;;;;;;14.27;5.23;;;;;;;;;;5261481;28;20017;-74
2024/01/28 00:20:40;;;;;;;10.47;5.10;;;;;;;;;;5262400;28;20581;-74
2024/01/28 00:23:11;;;;;;;11.33;5.17;;;;;;;;;;5262131;28;20029;-75
2024/01/28 00:25:42;;;;;;;12.30;5.07;;;;;;;;;;5261484;28;20025;-74
2024/01/28 00:28:13;;;;;;;11.40;5.40;;;;;;;;;;5262318;28;20067;-74
2024/01/28 00:30:45;;;;;;;11.37;5.37;;;;;;;;;;5262085;28;20031;-74
2024/01/28 00:33:16;;;;;;;12.07;4.73;;;;;;;;;;5261318;28;20024;-74
2024/01/28 00:35:47;;;;;;;8.20;3.97;;;;;;;;;;5261744;28;20021;-74
2024/01/28 00:38:18;;;;;;;11.77;4.70;;;;;;;;;;5262149;28;20526;-74
2024/01/28 00:40:49;;;;;;;10.90;5.14;;;;;;;;;;5261271;28;20124;-74
2024/01/28 00:43:21;;;;;;;10.80;4.83;;;;;;;;;;5261861;28;20408;-74
2024/01/28 00:45:52;;;;;;;11.60;5.23;;;;;;;;;;5262136;28;20041;-73
2024/01/28 00:48:23;;;;;;;12.63;5.37;;;;;;;;;;5260024;28;20024;-75
2024/01/28 00:50:54;;;;;;;11.33;4.43;;;;;;;;;;5261851;28;20071;-75
2024/01/28 00:53:26;;;;;;;11.63;4.80;;;;;;;;;;5260818;28;20480;-75
2024/01/28 00:55:57;;;;;;;10.57;4.80;;;;;;;;;;5261537;28;20075;-75
2024/01/28 00:58:29;;;;;;;9.40;4.23;;;;;;;;;;5261509;28;20020;-74
2024/01/28 01:01:00;;;;;;;10.50;4.97;;;;;;;;;;5260584;28;20021;-75
2024/01/28 01:03:31;;;;;;;19.00;7.83;;;;;;;;;;5261634;28;20032;-75
2024/01/28 01:06:03;;;;;;;15.47;7.33;;;;;;;;;;5261260;28;20052;-75
2024/01/28 01:08:34;;;;;;;16.93;6.20;;;;;;;;;;5260655;28;20456;-75
2024/01/28 01:11:08;;;;;;;14.07;6.17;;;;;;;;;;5261247;28;20036;-75
2024/01/28 01:13:39;;;;;;;10.93;5.57;;;;;;;;;;5261279;28;20052;-75
2024/01/28 01:16:10;;;;;;;9.73;4.97;;;;;;;;;;5260581;28;20439;-75
2024/01/28 01:18:41;;;;;;;13.37;5.03;;;;;;;;;;5261168;28;20047;-75
2024/01/28 01:21:13;;;;;;;11.60;5.00;;;;;;;;;;5260396;28;20027;-75
2024/01/28 01:23:44;;;;;;;10.07;4.43;;;;;;;;;;5260909;28;20090;-75
2024/01/28 01:26:15;;;;;;;13.33;4.63;;;;;;;;;;5261252;28;20033;-75
2024/01/28 01:28:46;;;;;;;9.37;4.67;;;;;;;;;;5260373;28;20048;-75
2024/01/28 01:31:17;;;;;;;11.47;4.33;;;;;;;;;;5261009;28;20037;-75
2024/01/28 01:33:49;;;;;;;9.43;4.50;;;;;;;;;;5260890;28;20032;-75
2024/01/28 01:36:20;;;;;;;12.80;4.37;;;;;;;;;;5259936;28;20021;-75
2024/01/28 01:38:51;;;;;;;12.50;4.10;;;;;;;;;;5260880;28;20033;-75
2024/01/28 01:41:25;;;;;;;9.80;4.10;;;;;;;;;;5260662;28;20078;-75
2024/01/28 01:43:57;;;;;;;13.33;4.20;;;;;;;;;;5260139;28;20021;-75
2024/01/28 01:46:29;;;;;;;8.73;3.97;;;;;;;;;;5260692;28;20091;-75
2024/01/28 01:49:00;;;;;;;10.30;4.70;;;;;;;;;;5260997;28;20024;-74
2024/01/28 01:51:31;;;;;;;7.87;4.13;;;;;;;;;;5259836;28;20046;-75
2024/01/28 01:54:03;;;;;;;11.93;4.67;;;;;;;;;;5260604;28;20021;-75
2024/01/28 01:56:34;;;;;;;8.67;4.10;;;;;;;;;;5259891;28;20049;-75
2024/01/28 01:59:06;;;;;;;10.97;4.40;;;;;;;;;;5260644;28;20028;-75
2024/01/28 02:01:37;;;;;;;8.83;4.40;;;;;;;;;;5263055;28;20021;-74
2024/01/28 02:04:08;;;;;;;9.90;3.90;;;;;;;;;;5264463;28;20016;-75
2024/01/28 02:06:40;;;;;;;10.67;4.43;;;;;;;;;;5264899;28;20021;-75
2024/01/28 02:09:11;;;;;;;10.40;4.00;;;;;;;;;;5264810;28;20029;-75
2024/01/28 02:11:43;;;;;;;9.07;4.10;;;;;;;;;;5264005;28;20024;-75
2024/01/28 02:14:21;;;;;;;11.57;4.53;;;;;;;;;;5264768;28;20021;-75
2024/01/28 02:16:52;;;;;;;12.53;4.67;;;;;;;;;;5265082;28;20086;-75
2024/01/28 02:19:23;;;;;;;7.70;4.00;;;;;;;;;;5263584;28;20009;-75
2024/01/28 02:21:54;;;;;;;10.13;4.50;;;;;;;;;;5264927;28;20456;-75
2024/01/28 02:24:26;;;;;;;10.10;3.37;;;;;;;;;;5263421;28;20021;-75
2024/01/28 02:26:57;;;;;;;9.43;4.20;;;;;;;;;;5264788;28;20028;-74
2024/01/28 02:29:28;;;;;;;7.33;3.80;;;;;;;;;;5264525;28;20083;-75
2024/01/28 02:31:59;;;;;;;12.60;4.43;;;;;;;;;;5263481;28;20399;-74
2024/01/28 02:34:30;;;;;;;14.30;4.03;;;;;;;;;;5264204;28;20452;-74
2024/01/28 02:37:02;;;;;;;9.20;4.27;;;;;;;;;;5264425;28;20037;-75
2024/01/28 02:39:33;;;;;;;13.10;5.00;;;;;;;;;;5263668;28;20017;-74
2024/01/28 02:42:04;;;;;;;8.43;4.50;;;;;;;;;;5264272;28;20062;-74
2024/01/28 02:44:36;;;;;;;8.20;4.87;;;;;;;;;;5264216;28;20027;-74
2024/01/28 02:47:07;;;;;;;13.33;4.73;;;;;;;;;;5263777;28;20021;-74
2024/01/28 02:49:38;;;;;;;9.93;4.27;;;;;;;;;;5264230;28;20028;-74
2024/01/28 02:52:09;;;;;;;10.47;4.67;;;;;;;;;;5263992;28;20106;-74
2024/01/28 02:54:41;;;;;;;9.17;4.20;;;;;;;;;;5263225;28;20036;-74
2024/01/28 02:57:12;;;;;;;10.83;4.53;;;;;;;;;;5264011;28;20043;-75
2024/01/28 02:59:43;;;;;;;9.03;4.50;;;;;;;;;;5262979;28;20017;-75
2024/01/28 03:02:15;;;;;;;10.43;4.10;;;;;;;;;;5263915;28;20021;-74
2024/01/28 03:04:46;;;;;;;10.57;3.83;;;;;;;;;;5263959;28;20032;-74
2024/01/28 03:07:17;;;;;;;11.77;4.20;;;;;;;;;;5263139;28;20151;-74
2024/01/28 03:09:48;;;;;;;8.00;4.07;;;;;;;;;;5263664;28;20118;-74
2024/01/28 03:12:19;;;;;;;9.47;4.47;;;;;;;;;;5263155;28;20021;-74
2024/01/28 03:14:50;;;;;;;10.17;4.37;;;;;;;;;;5263103;28;20052;-74
2024/01/28 03:17:22;;;;;;;11.23;4.03;;;;;;;;;;5263391;28;20021;-74
2024/01/28 03:19:53;;;;;;;9.40;3.87;;;;;;;;;;5263926;28;20021;-74
2024/01/28 03:22:24;;;;;;;14.70;4.87;;;;;;;;;;5262495;28;20110;-74
2024/01/28 03:24:55;;;;;;;9.03;3.77;;;;;;;;;;5263943;28;20044;-74
2024/01/28 03:27:26;;;;;;;9.17;3.97;;;;;;;;;;5263306;28;20048;-75
2024/01/28 03:29:58;;;;;;;8.70;4.53;;;;;;;;;;5262491;28;20021;-74
2024/01/28 03:32:29;;;;;;;10.67;3.87;;;;;;;;;;5263164;28;20025;-74
2024/01/28 03:35:01;;;;;;;8.80;3.57;;;;;;;;;;5262345;28;20187;-74
2024/01/28 03:37:32;;;;;;;7.57;3.50;;;;;;;;;;5263168;28;20047;-74
2024/01/28 03:40:03;;;;;;;9.57;4.27;;;;;;;;;;5262970;28;20025;-74
2024/01/28 03:42:34;;;;;;;10.30;4.23;;;;;;;;;;5262252;28;20575;-74
2024/01/28 03:45:06;;;;;;;11.40;4.03;;;;;;;;;;5263054;28;20021;-74
2024/01/28 03:47:37;;;;;;;7.20;2.97;;;;;;;;;;5262907;28;20029;-74
2024/01/28 03:50:09;;;;;;;9.37;3.90;;;;;;;;;;5262273;28;20021;-74
2024/01/28 03:52:40;;;;;;;9.90;3.53;;;;;;;;;;5262746;28;20424;-73
2024/01/28 03:55:11;;;;;;;11.20;3.90;;;;;;;;;;5262757;28;20538;-73
2024/01/28 03:57:43;;;;;;;6.53;3.30;;;;;;;;;;5261939;28;20028;-73
2024/01/28 04:00:15;;;;;;;9.67;3.27;;;;;;;;;;5262730;28;20025;-74
2024/01/28 04:02:47;;;;;;;8.47;3.27;;;;;;;;;;5262924;28;20024;-72
2024/01/28 04:05:18;;;;;;;11.13;3.87;;;;;;;;;;5261573;28;20035;-73
2024/01/28 04:07:49;;;;;;;9.07;3.40;;;;;;;;;;5262469;28;20024;-73
2024/01/28 04:10:21;;;;;;;9.00;2.77;;;;;;;;;;5261455;28;20099;-72
2024/01/28 04:12:52;;;;;;;8.27;3.10;;;;;;;;;;5262509;28;20025;-73
2024/01/28 04:15:23;;;;;;;10.30;3.07;;;;;;;;;;5262058;28;20028;-72
2024/01/28 04:17:54;;;;;;;8.40;3.07;;;;;;;;;;5261760;28;20021;-73
2024/01/28 04:20:25;;;;;;;8.57;3.40;;;;;;;;;;5261796;28;20021;-73
2024/01/28 04:22:57;;;;;;;8.20;3.00;;;;;;;;;;5261422;28;20055;-73
2024/01/28 04:25:28;;;;;;;11.77;3.37;;;;;;;;;;5260594;28;20021;-73
2024/01/28 04:27:59;;;;;;;9.17;2.83;;;;;;;;;;5261771;28;20021;-73
2024/01/28 04:30:30;;;;;;;9.73;3.07;;;;;;;;;;5262224;28;20572;-72
2024/01/28 04:33:02;;;;;;;10.37;3.30;;;;;;;;;;5261305;28;20070;-73
2024/01/28 04:35:33;;;;;;;9.17;3.07;;;;;;;;;;5261931;28;20036;-72
2024/01/28 04:38:04;;;;;;;6.97;2.37;;;;;;;;;;5261362;28;20017;-75
2024/01/28 04:40:35;;;;;;;6.13;2.70;;;;;;;;;;5261867;28;20028;-72
2024/01/28 04:43:06;;;;;;;5.78;2.26;;;;;;;;;;5261659;28;20461;-72
2024/01/28 04:45:37;;;;;;;7.03;2.37;;;;;;;;;;5261144;28;20460;-72
2024/01/28 04:48:09;;;;;;;9.63;2.40;;;;;;;;;;5261672;28;20092;-73
2024/01/28 04:50:40;;;;;;;10.43;3.33;;;;;;;;;;5261863;28;20036;-72
2024/01/28 04:53:12;;;;;;;5.63;2.07;;;;;;;;;;5260764;28;20070;-73
2024/01/28 04:55:43;;;;;;;9.13;2.23;;;;;;;;;;5261416;28;20508;-73
2024/01/28 04:58:14;;;;;;;8.30;2.70;;;;;;;;;;5261522;28;20095;-73
2024/01/28 05:00:45;;;;;;;7.40;2.60;;;;;;;;;;5260707;28;20108;-73
2024/01/28 05:03:17;;;;;;;7.80;2.40;;;;;;;;;;5261416;28;20017;-73
2024/01/28 05:05:48;;;;;;;11.87;2.50;;;;;;;;;;5261527;28;20017;-73
2024/01/28 05:08:19;;;;;;;7.23;2.63;;;;;;;;;;5260441;28;20029;-73
2024/01/28 05:10:50;;;;;;;7.40;2.13;;;;;;;;;;5261051;28;20072;-72
2024/01/28 05:13:22;;;;;;;8.33;2.60;;;;;;;;;;5260252;28;20566;-73
2024/01/28 05:15:53;;;;;;;7.00;2.70;;;;;;;;;;5261559;28;20013;-73
2024/01/28 05:18:24;;;;;;;7.63;2.70;;;;;;;;;;5261067;28;20460;-73
2024/01/28 05:20:55;;;;;;;5.60;2.23;;;;;;;;;;5260724;28;20021;-72
2024/01/28 05:23:27;;;;;;;5.23;2.23;;;;;;;;;;5260634;28;20421;-72
2024/01/28 05:25:59;;;;;;;9.50;2.80;;;;;;;;;;5261370;28;20021;-72
2024/01/28 05:28:30;;;;;;;7.03;2.60;;;;;;;;;;5260524;28;20479;-74
2024/01/28 05:31:01;;;;;;;8.90;2.60;;;;;;;;;;5261225;28;20037;-73
2024/01/28 05:33:37;;;;;;;6.90;2.70;;;;;;;;;;5261198;28;20092;-73
2024/01/28 05:36:12;;;;;;;8.47;2.93;;;;;;;;;;5259959;28;20032;-75
2024/01/28 05:38:44;;;;;;;11.10;2.97;;;;;;;;;;5260834;28;20111;-73
2024/01/28 05:41:15;;;;;;;7.20;2.77;;;;;;;;;;5261010;28;20064;-73
2024/01/28 05:43:47;;;;;;;6.53;2.30;;;;;;;;;;5260167;28;20057;-73
2024/01/28 05:46:18;;;;;;;12.30;2.97;;;;;;;;;;5260787;28;20078;-73
2024/01/28 05:48:49;;;;;;;8.23;3.40;;;;;;;;;;5260469;28;20015;-73
2024/01/28 05:51:20;;;;;;;5.80;2.70;;;;;;;;;;5260853;28;20029;-73
2024/01/28 05:53:52;;;;;;;9.87;3.20;;;;;;;;;;5261152;28;20066;-73
2024/01/28 05:56:23;;;;;;;7.60;2.63;;;;;;;;;;5259694;28;20049;-73
2024/01/28 05:58:54;;;;;;;9.67;3.20;;;;;;;;;;5261046;28;20020;-73
2024/01/28 06:01:26;;;;;;;8.03;2.97;;;;;;;;;;5260679;28;20025;-73
2024/01/28 06:03:57;;;;;;;7.77;2.57;;;;;;;;;;5260090;28;20139;-73
2024/01/28 06:06:28;;;;;;;9.60;2.23;;;;;;;;;;5260555;28;20025;-73
2024/01/28 06:08:59;;;;;;;6.70;2.87;;;;;;;;;;5260782;28;20578;-74
2024/01/28 06:11:30;;;;;;;4.80;2.13;;;;;;;;;;5259785;28;20082;-73
2024/01/28 06:14:03;;;;;;;10.10;2.57;;;;;;;;;;5260598;28;20048;-73
2024/01/28 06:16:34;;;;;;;6.23;2.30;;;;;;;;;;5260120;28;20033;-73
2024/01/28 06:19:05;;;;;;;7.93;2.80;;;;;;;;;;5260475;28;20013;-73
2024/01/28 06:21:36;;;;;;;7.67;1.90;;;;;;;;;;5260531;28;20108;-73
2024/01/28 06:24:08;;;;;;;6.40;2.10;;;;;;;;;;5259948;28;20460;-73
2024/01/28 06:26:39;;;;;;;8.33;1.90;;;;;;;;;;5260326;28;20028;-73
2024/01/28 06:29:11;;;;;;;6.13;1.60;;;;;;;;;;5260501;28;20372;-73
2024/01/28 06:31:42;;;;;;;8.53;1.93;;;;;;;;;;5259477;28;20029;-73
2024/01/28 06:34:13;;;;;;;5.50;2.03;;;;;;;;;;5260437;28;20051;-73
2024/01/28 06:36:44;;;;;;;6.13;1.43;;;;;;;;;;5260270;28;20432;-74
2024/01/28 06:39:16;;;;;;;5.23;1.67;;;;;;;;;;5259660;28;20017;-73
2024/01/28 06:41:48;;;;;;;4.70;1.87;;;;;;;;;;5260248;28;20024;-73
2024/01/28 06:44:19;;;;;;;5.70;1.50;;;;;;;;;;5260306;28;20472;-73
2024/01/28 06:46:50;;;;;;;7.13;1.90;;;;;;;;;;5260247;28;20020;-73
2024/01/28 06:49:22;;;;;;;6.50;2.13;;;;;;;;;;5264034;28;20024;-73
2024/01/28 06:51:53;;;;;;;5.77;1.87;;;;;;;;;;5263535;28;20040;-73
2024/01/28 06:54:24;;;;;;;5.60;1.53;;;;;;;;;;5263675;28;20017;-73
2024/01/28 06:56:55;;;;;;;7.47;2.10;;;;;;;;;;5264006;28;20044;-73
2024/01/28 06:59:27;;;;;;;10.97;2.20;;;;;;;;;;5262721;28;20020;-73
2024/01/28 07:01:58;;;;;;;6.53;1.63;;;;;;;;;;5263942;28;20017;-73
2024/01/28 07:04:29;;;;;;;6.37;1.70;;;;;;;;;;5263757;28;20106;-73
2024/01/28 07:07:00;;;;;;;6.96;2.30;;;;;;;;;;5262997;28;20032;-73
2024/01/28 07:09:31;;;;;;;7.57;1.83;;;;;;;;;;5263545;28;20036;-73
2024/01/28 07:12:03;;;;;;;5.73;2.10;;;;;;;;;;5263641;28;20036;-73
2024/01/28 07:14:34;;;;;;;5.33;1.67;;;;;;;;;;5262719;28;20017;-73
2024/01/28 07:17:07;;;;;;;9.90;2.40;;;;;;;;;;5263481;28;20081;-74
2024/01/28 07:19:40;;;;;;;6.97;2.10;;;;;;;;;;5263338;28;20020;-73
2024/01/28 07:22:12;;;;;;;4.70;1.53;;;;;;;;;;5262632;28;20024;-73
2024/01/28 07:24:43;;;;;;;5.77;1.80;;;;;;;;;;5263115;28;20017;-73
2024/01/28 07:27:15;;;;;;;5.03;1.83;;;;;;;;;;5262532;28;20468;-73
2024/01/28 07:29:46;;;;;;;7.30;1.90;;;;;;;;;;5263208;28;20043;-73
2024/01/28 07:32:17;;;;;;;8.00;1.90;;;;;;;;;;5263197;28;20041;-73
2024/01/28 07:34:49;;;;;;;9.40;1.80;;;;;;;;;;5262262;28;20092;-74
2024/01/28 07:37:20;;;;;;;8.03;1.57;;;;;;;;;;5263145;28;20472;-73
2024/01/28 07:39:52;;;;;;;9.50;2.20;;;;;;;;;;5263257;28;20032;-73
2024/01/28 07:42:23;;;;;;;7.37;1.90;;;;;;;;;;5261941;28;20487;-73
2024/01/28 07:44:54;;;;;;;3.80;1.73;;;;;;;;;;5263048;28;20025;-73
2024/01/28 07:47:26;;;;;;;7.37;2.10;;;;;;;;;;5262384;28;20025;-74
2024/01/28 07:49:58;;;;;;;8.23;2.20;;;;;;;;;;5262306;28;20106;-73
2024/01/28 07:52:30;;;;;;;6.40;2.03;;;;;;;;;;5262689;28;20033;-73
2024/01/28 07:55:01;;;;;;;5.87;1.33;;;;;;;;;;5261845;28;20044;-73
2024/01/28 07:57:33;;;;;;;5.43;1.50;;;;;;;;;;5261929;28;20045;-73
2024/01/28 08:00:05;;;;;;;7.63;1.70;;;;;;;;;;5261546;28;20460;-73
2024/01/28 08:02:36;;;;;;;5.90;1.70;;;;;;;;;;5261055;28;20354;-73
2024/01/28 08:05:08;;;;;;;9.27;2.50;;;;;;;;;;5262409;28;20017;-73
2024/01/28 08:07:40;;;;;;;7.60;2.00;;;;;;;;;;5262302;28;20510;-73
2024/01/28 08:10:11;;;;;;;7.50;2.37;;;;;;;;;;5261322;28;20017;-73
2024/01/28 08:12:43;;;;;;;10.47;2.50;;;;;;;;;;5262107;28;20448;-73
2024/01/28 08:15:15;;;;;;;5.17;1.43;;;;;;;;;;5262371;28;20017;-73
2024/01/28 08:17:49;;;;;;;4.80;1.50;;;;;;;;;;5261427;28;20092;-74
2024/01/28 08:20:20;;;;;;;5.10;1.63;;;;;;;;;;5262010;28;20451;-74
2024/01/28 08:22:52;;;;;;;5.60;1.87;;;;;;;;;;5262346;28;20024;-74
2024/01/28 08:25:23;;;;;;;6.30;2.00;;;;;;;;;;5260765;28;20021;-74
2024/01/28 08:27:54;;;;;;;6.07;2.80;;;;;;;;;;5262446;28;20021;-73
2024/01/28 08:30:26;;;;;;;9.53;3.77;;;;;;;;;;5260714;28;20037;-74
2024/01/28 08:32:57;;;;;;;8.90;4.87;;;;;;;;;;5261963;28;20028;-74
2024/01/28 08:35:29;;;;;;;9.10;3.80;;;;;;;;;;5261818;28;20027;-74
2024/01/28 08:38:00;;;;;;;7.23;3.47;;;;;;;;;;5260999;28;20009;-74
2024/01/28 08:40:31;;;;;;;9.50;4.77;;;;;;;;;;5261818;28;20032;-74
2024/01/28 08:43:04;;;;;;;7.60;3.67;;;;;;;;;;5261734;28;20035;-74
2024/01/28 08:45:38;;;;;;;7.33;2.83;;;;;;;;;;5260770;28;20032;-74
2024/01/28 08:48:09;;;;;;;5.70;2.43;;;;;;;;;;5261754;28;20016;-74
2024/01/28 08:50:40;;;;;;;7.67;1.80;;;;;;;;;;5261325;28;20178;-74
2024/01/28 08:53:12;;;;;;;4.97;1.90;;;;;;;;;;5260794;28;20423;-75
2024/01/28 08:55:43;;;;;;;4.00;1.47;;;;;;;;;;5260950;28;20110;-75
2024/01/28 08:58:15;;;;;;;4.80;1.57;;;;;;;;;;5260825;28;20025;-74
2024/01/28 09:00:46;;;;;;;5.60;1.50;;;;;;;;;;5261154;28;20099;-74
2024/01/28 09:03:17;;;;;;;5.67;1.30;;;;;;;;;;5261193;28;20023;-74
2024/01/28 09:05:49;;;;;;;4.37;0.93;;;;;;;;;;5260656;28;20155;-75
2024/01/28 09:08:20;;;;;;;3.67;1.03;;;;;;;;;;5260931;28;20017;-74
2024/01/28 09:10:51;;;;;;;4.90;1.07;;;;;;;;;;5260711;28;20021;-74
2024/01/28 09:13:24;;;;;;;5.15;1.15;;;;;;;;;;5260086;28;20484;-75
2024/01/28 09:15:55;;;;;;;6.03;1.00;;;;;;;;;;5261176;28;20040;-74
2024/01/28 09:18:26;;;;;;;6.55;1.13;;;;;;;;;;5260544;28;20033;-73
2024/01/28 09:20:58;;;;;;;4.05;1.05;;;;;;;;;;5260324;28;20802;-74
2024/01/28 09:23:30;;;;;;;3.78;1.23;;;;;;;;;;5260984;28;20471;-74
2024/01/28 09:26:01;;;;;;;5.03;1.35;;;;;;;;;;5261066;28;20110;-74
2024/01/28 09:28:32;;;;;;;4.40;1.10;;;;;;;;;;5260342;28;20032;-74
2024/01/28 09:31:07;;;;;;;3.72;1.00;;;;;;;;;;5260635;28;20029;-75
2024/01/28 09:33:38;;;;;;;2.53;0.98;;;;;;;;;;5259933;28;20036;-74
2024/01/28 09:36:09;;;;;;;3.60;1.10;;;;;;;;;;5260792;28;20013;-75
2024/01/28 09:38:40;;;;;;;4.22;1.10;;;;;;;;;;5260920;28;20533;-75
2024/01/28 09:41:23;;;;;;;3.55;1.00;;;;;;;;;;5259934;28;20029;-75
2024/01/28 09:43:54;;;;;;;3.15;1.10;;;;;;;;;;5260879;28;20028;-75
2024/01/28 09:46:25;;;;;;;3.13;1.00;;;;;;;;;;5260581;28;20017;-76
2024/01/28 09:48:58;;;;;;;3.55;1.20;;;;;;;;;;5259880;28;20024;-75
2024/01/28 09:51:30;;;;;;;4.80;1.00;;;;;;;;;;5260698;28;20029;-74
2024/01/28 09:54:01;;;;;;;3.42;0.93;;;;;;;;;;5260590;28;20078;-75
2024/01/28 09:56:32;;;;;;;5.28;1.10;;;;;;;;;;5259752;28;20056;-76
2024/01/28 09:59:05;;;;;;;3.53;1.40;;;;;;;;;;5260439;28;20025;-75
2024/01/28 10:01:37;;;;;;;6.82;1.17;;;;;;;;;;5259708;28;20025;-74
2024/01/28 10:04:10;;;;;;;4.32;0.80;;;;;;;;;;5260492;28;20024;-74
2024/01/28 10:06:41;;;;;;;3.65;1.00;;;;;;;;;;5260405;28;20092;-74
2024/01/28 10:09:12;;;;;;;6.95;1.20;;;;;;;;;;5259569;28;20384;-75
2024/01/28 10:11:45;;;;;;;6.13;1.10;;;;;;;;;;5260352;28;20036;-73
2024/01/28 10:14:17;;;;;;;3.53;1.38;;;;;;;;;;5260247;28;20020;-74
2024/01/28 10:16:48;;;;;;;4.47;1.00;;;;;;;;;;5259696;28;20490;-74
2024/01/28 10:19:20;;;;;;;5.75;1.15;;;;;;;;;;5260498;28;20040;-76
2024/01/28 10:21:51;;;;;;;3.75;1.08;;;;;;;;;;5261796;28;20021;-75
2024/01/28 10:24:23;;;;;;;2.67;0.90;;;;;;;;;;5263381;28;20294;-75
2024/01/28 10:26:56;;;;;;;3.83;1.42;;;;;;;;;;5264973;28;20021;-76
2024/01/28 10:29:28;;;;;;;2.53;0.80;;;;;;;;;;5263812;28;20017;-75
2024/01/28 10:31:59;;;;;;;3.72;0.80;;;;;;;;;;5263347;28;20021;-76
2024/01/28 10:34:30;;;;;;;5.45;1.63;;;;;;;;;;5264323;28;20019;-75
2024/01/28 10:37:04;;;;;;;2.70;0.70;;;;;;;;;;5263464;28;20440;-76
2024/01/28 10:39:37;;;;;;;4.28;0.90;;;;;;;;;;5264509;28;20044;-75
2024/01/28 10:42:12;;;;;;;2.90;1.00;;;;;;;;;;5264234;28;20055;-75
2024/01/28 10:44:45;;;;;;;4.25;0.90;;;;;;;;;;5263413;28;20063;-75
2024/01/28 10:47:17;;;;;;;4.50;1.05;;;;;;;;;;5263994;28;20079;-75
2024/01/28 10:49:51;;;;;;;5.45;1.00;;;;;;;;;;5264020;28;20013;-73
2024/01/28 10:52:23;;;;;;;5.82;1.20;;;;;;;;;;5262983;28;20029;-73
2024/01/28 10:54:54;;;;;;;3.08;0.80;;;;;;;;;;5263773;28;20041;-74
2024/01/28 10:57:27;;;;;;;3.35;1.35;;;;;;;;;;5263775;28;20016;-74
2024/01/28 10:59:59;;;;;;;4.22;0.80;;;;;;;;;;5263176;28;20017;-75
2024/01/28 11:02:30;;;;;;;4.40;1.30;;;;;;;;;;5263827;28;20074;-73
2024/01/28 11:05:02;;;;;;;4.38;1.10;;;;;;;;;;5262919;28;20017;-75
2024/01/28 11:07:34;;;;;;;4.35;1.08;;;;;;;;;;5264040;28;20112;-74
2024/01/28 11:10:05;;;;;;;3.53;1.40;;;;;;;;;;5263526;28;20104;-74
2024/01/28 11:12:37;;;;;;;2.78;0.80;;;;;;;;;;5262795;28;20361;-76
2024/01/28 11:15:13;;;;;;;3.33;0.77;;;;;;;;;;5263348;28;20009;-74
2024/01/28 11:17:44;;;;;;;4.68;0.95;;;;;;;;;;5254737;28;20016;-74
2024/01/28 11:20:22;;;;;;;3.17;1.08;;;;;;;;;;5261998;28;20128;-74
2024/01/28 11:22:54;;;;;;;2.97;0.70;;;;;;;;;;5263764;28;20463;-74
2024/01/28 11:25:26;;;;;;;4.75;0.90;;;;;;;;;;5262899;28;20076;-74
2024/01/28 11:27:58;;;;;;;2.90;0.80;;;;;;;;;;5261381;28;20059;-75
2024/01/28 11:30:29;;;;;;;3.75;0.80;;;;;;;;;;5262137;28;20033;-77
2024/01/28 11:33:10;;;;;;;3.28;0.90;;;;;;;;;;5261410;28;20082;-77
2024/01/28 11:35:43;;;;;;;3.67;0.85;;;;;;;;;;5258268;28;20036;-76
2024/01/28 11:38:21;;;;;;;5.13;0.95;;;;;;;;;;5262526;28;20025;-78
2024/01/28 11:40:57;;;;;;;3.80;0.90;;;;;;;;;;5262473;28;20032;-74
2024/01/28 11:43:28;;;;;;;5.93;1.05;;;;;;;;;;5262548;28;20017;-76
2024/01/28 11:46:00;;;;;;;4.22;0.90;;;;;;;;;;5261822;28;20100;-75
2024/01/28 11:48:31;;;;;;;4.00;0.90;;;;;;;;;;5260360;28;20021;-77
2024/01/28 11:51:02;;;;;;;5.18;1.15;;;;;;;;;;5262626;28;20517;-77
2024/01/28 11:53:34;;;;;;;4.70;1.00;;;;;;;;;;5262921;28;20104;-76
2024/01/28 11:56:06;;;;;;;3.88;0.90;;;;;;;;;;5261905;28;20072;-77
2024/01/28 11:58:37;;;;;;;4.45;1.00;;;;;;;;;;5262385;28;20077;-77
2024/01/28 12:01:09;;;;;;;6.80;1.10;;;;;;;;;;5261759;28;20504;-78
2024/01/28 12:03:40;;;;;;;3.63;0.80;;;;;;;;;;5262102;28;20031;-78
2024/01/28 12:06:12;;;;;;;2.88;0.70;;;;;;;;;;5262853;28;20521;-77
2024/01/28 12:08:43;;;;;;;3.85;0.80;;;;;;;;;;5261709;28;20045;-78
2024/01/28 12:11:15;;;;;;;3.90;0.80;;;;;;;;;;5262590;28;20353;-77
2024/01/28 12:13:47;;;;;;;3.13;0.65;;;;;;;;;;5262308;28;20017;-78
2024/01/28 12:16:19;;;;;;;3.85;0.82;;;;;;;;;;5261692;28;20029;-77
2024/01/28 12:18:54;;;;;;;5.35;1.02;;;;;;;;;;5262767;28;20476;-77
2024/01/28 12:21:27;;;;;;;3.95;0.80;;;;;;;;;;5261923;28;20069;-77
2024/01/28 12:24:06;;;;;;;3.10;0.68;;;;;;;;;;5261643;28;20533;-78
2024/01/28 12:26:37;;;;;;;3.22;0.95;;;;;;;;;;5261902;28;20052;-78
2024/01/28 12:29:08;;;;;;;4.72;0.88;;;;;;;;;;5262190;28;20009;-77
2024/01/28 12:31:40;;;;;;;3.63;0.73;;;;;;;;;;5261373;28;20119;-77
2024/01/28 12:34:15;;;;;;;4.00;0.93;;;;;;;;;;5262520;28;20399;-77
2024/01/28 12:36:46;;;;;;;3.20;0.65;;;;;;;;;;5260869;28;20116;-76
2024/01/28 12:39:17;;;;;;;3.90;0.82;;;;;;;;;;5264958;28;20032;-76
2024/01/28 12:41:49;;;;;;;3.60;0.80;;;;;;;;;;5267432;28;20415;-76
2024/01/28 12:44:20;;;;;;;2.45;0.80;;;;;;;;;;5260852;28;20036;-77
2024/01/28 12:46:51;;;;;;;2.33;0.85;;;;;;;;;;5262753;28;20021;-78
2024/01/28 12:49:23;;;;;;;2.85;0.77;;;;;;;;;;5261076;28;20047;-75
2024/01/28 12:51:54;;;;;;;2.72;0.90;;;;;;;;;;5261526;28;20029;-78
2024/01/28 12:54:25;;;;;;;2.90;0.85;;;;;;;;;;5262008;28;20074;-78
2024/01/28 12:56:56;;;;;;;2.15;0.70;;;;;;;;;;5261699;28;20107;-79
2024/01/28 12:59:27;;;;;;;4.60;0.80;;;;;;;;;;5260799;28;20021;-79
2024/01/28 13:01:59;;;;;;;2.60;0.70;;;;;;;;;;5261912;28;20087;-79
2024/01/28 13:04:30;;;;;;;2.05;0.63;;;;;;;;;;5261185;28;20025;-79
2024/01/28 13:07:01;;;;;;;3.67;1.35;;;;;;;;;;5261712;28;20024;-79
2024/01/28 13:09:33;;;;;;;4.80;0.80;;;;;;;;;;5261587;28;20047;-78
2024/01/28 13:12:05;;;;;;;3.47;0.90;;;;;;;;;;5260526;28;20025;-78
2024/01/28 13:14:36;;;;;;;4.30;0.70;;;;;;;;;;5261512;28;20426;-79
2024/01/28 13:17:07;;;;;;;4.05;0.60;;;;;;;;;;5261268;28;20071;-79
2024/01/28 13:19:38;;;;;;;2.95;0.68;;;;;;;;;;5260536;28;20406;-78
2024/01/28 13:22:10;;;;;;;3.92;1.00;;;;;;;;;;5261237;28;20375;-78
2024/01/28 13:24:41;;;;;;;3.35;0.77;;;;;;;;;;5261339;28;20025;-79
2024/01/28 13:27:12;;;;;;;3.33;1.10;;;;;;;;;;5260568;28;20035;-79
2024/01/28 13:29:43;;;;;;;2.53;0.90;;;;;;;;;;5261012;28;20092;-79
2024/01/28 13:32:15;;;;;;;2.92;0.70;;;;;;;;;;5261071;28;20476;-78
2024/01/28 13:34:46;;;;;;;4.50;0.90;;;;;;;;;;5260517;28;20023;-78
2024/01/28 13:37:17;;;;;;;2.65;0.75;;;;;;;;;;5261079;28;20064;-79
2024/01/28 13:39:48;;;;;;;2.55;0.52;;;;;;;;;;5260313;28;20070;-79
2024/01/28 13:42:20;;;;;;;3.55;0.70;;;;;;;;;;5260895;28;20074;-79
2024/01/28 13:44:51;;;;;;;2.67;0.77;;;;;;;;;;5261111;28;20023;-80
2024/01/28 13:47:24;;;;;;;2.78;1.08;;;;;;;;;;5260143;28;20100;-80
2024/01/28 13:49:58;;;;;;;3.67;0.68;;;;;;;;;;5261131;28;20111;-79
2024/01/28 13:52:29;;;;;;;5.22;0.88;;;;;;;;;;5260828;28;20156;-80
2024/01/28 13:55:00;;;;;;;2.22;0.80;;;;;;;;;;5260060;28;20500;-79
2024/01/28 13:57:31;;;;;;;3.03;0.88;;;;;;;;;;5264820;28;20092;-80
2024/01/28 14:00:05;;;;;;;3.85;0.75;;;;;;;;;;5265060;28;20076;-79
2024/01/28 14:02:38;;;;;;;3.83;0.93;;;;;;;;;;5263984;28;20016;-79
2024/01/28 14:05:12;;;;;;;2.95;0.75;;;;;;;;;;5264959;28;20024;-80
2024/01/28 14:07:43;;;;;;;2.75;0.70;;;;;;;;;;5264629;28;20476;-79
2024/01/28 14:10:14;;;;;;;3.35;0.85;;;;;;;;;;5264661;28;20032;-81
2024/01/28 14:12:46;;;;;;;3.72;1.10;;;;;;;;;;5264851;28;20040;-79
2024/01/28 14:15:17;;;;;;;3.30;1.00;;;;;;;;;;5264209;28;20021;-79
2024/01/28 14:17:48;;;;;;;2.90;0.70;;;;;;;;;;5264926;28;20464;-81
2024/01/28 14:20:19;;;;;;;2.63;0.80;;;;;;;;;;5264961;28;20024;-79
2024/01/28 14:22:50;;;;;;;3.28;0.70;;;;;;;;;;5264085;28;20055;-79
2024/01/28 14:25:21;;;;;;;2.65;0.55;;;;;;;;;;5265296;28;20013;-80
2024/01/28 14:27:53;;;;;;;2.15;0.60;;;;;;;;;;5274147;28;20495;-79
2024/01/28 14:30:24;;;;;;;2.05;0.60;;;;;;;;;;5265987;28;20082;-79
2024/01/28 14:32:55;;;;;;;1.90;0.63;;;;;;;;;;5264784;28;20028;-79
2024/01/28 14:35:26;;;;;;;2.38;0.80;;;;;;;;;;5264251;28;20453;-79
2024/01/28 14:37:58;;;;;;;1.92;0.60;;;;;;;;;;5264060;28;20028;-79
2024/01/28 14:40:29;;;;;;;1.65;0.60;;;;;;;;;;5264610;28;20017;-81
2024/01/28 14:43:00;;;;;;;1.58;0.50;;;;;;;;;;5263754;28;20025;-79
2024/01/28 14:45:32;;;;;;;1.92;0.70;;;;;;;;;;5264266;28;20509;-79
2024/01/28 14:48:03;;;;;;;1.58;0.60;;;;;;;;;;5264115;28;20036;-79
2024/01/28 14:50:39;;;;;;;3.83;0.57;;;;;;;;;;5263367;28;20017;-80
2024/01/28 14:53:10;;;;;;;2.97;0.70;;;;;;;;;;5264057;28;20427;-80
2024/01/28 14:55:41;;;;;;;2.70;0.70;;;;;;;;;;5264133;28;20053;-77
2024/01/28 14:58:13;;;;;;;1.30;0.50;;;;;;;;;;5263469;28;20108;-80
2024/01/28 15:00:45;;;;;;;2.28;0.65;;;;;;;;;;5263970;28;20043;-80
2024/01/28 15:03:17;;;;;;;2.97;0.60;;;;;;;;;;5263989;28;20020;-79
2024/01/28 15:05:49;;;;;;;3.03;0.50;;;;;;;;;;5263324;28;20445;-78